sensor_id;sensor_type;location;lat;lon;timestamp;P1;durP1;ratioP1;P2;durP2;ratioP2
54909;SDS011;63189;51.240;9.964;2023-03-16T00:00:40;7.47;;;3.42;;
54909;SDS011;63189;51.240;9.964;2023-03-16T00:03:07;6.72;;;3.50;;
54909;SDS011;63189;51.240;9.964;2023-03-16T00:05:32;5.80;;;2.80;;
54909;SDS011;63189;51.240;9.964;2023-03-16T00:07:58;7.88;;;2.90;;
54909;SDS011;63189;51.240;9.964;2023-03-16T00:10:23;5.15;;;2.90;;
54909;SDS011;63189;51.240;9.964;2023-03-16T00:12:51;8.77;;;3.33;;
54909;SDS011;63189;51.240;9.964;2023-03-16T00:15:17;7.18;;;3.22;;
54909;SDS011;63189;51.240;9.964;2023-03-16T00:17:43;8.50;;;4.05;;
54909;SDS011;63189;51.240;9.964;2023-03-16T00:20:12;10.18;;;4.28;;
54909;SDS011;63189;51.240;9.964;2023-03-16T00:22:42;5.93;;;3.58;;
54909;SDS011;63189;51.240;9.964;2023-03-16T00:25:08;7.93;;;3.30;;
54909;SDS011;63189;51.240;9.964;2023-03-16T00:27:35;8.32;;;3.60;;
54909;SDS011;63189;51.240;9.964;2023-03-16T00:30:01;8.43;;;3.47;;
54909;SDS011;63189;51.240;9.964;2023-03-16T00:32:34;8.60;;;3.85;;
54909;SDS011;63189;51.240;9.964;2023-03-16T00:35:01;9.00;;;3.22;;
54909;SDS011;63189;51.240;9.964;2023-03-16T00:37:28;7.10;;;3.13;;
54909;SDS011;63189;51.240;9.964;2023-03-16T00:39:54;10.80;;;3.42;;
54909;SDS011;63189;51.240;9.964;2023-03-16T00:42:20;7.50;;;3.20;;
54909;SDS011;63189;51.240;9.964;2023-03-16T00:44:51;7.05;;;3.17;;
54909;SDS011;63189;51.240;9.964;2023-03-16T00:47:24;8.93;;;3.08;;
54909;SDS011;63189;51.240;9.964;2023-03-16T00:49:50;6.68;;;2.47;;
54909;SDS011;63189;51.240;9.964;2023-03-16T00:52:16;8.55;;;2.83;;
54909;SDS011;63189;51.240;9.964;2023-03-16T00:54:42;8.18;;;2.70;;
54909;SDS011;63189;51.240;9.964;2023-03-16T00:57:09;11.98;;;3.58;;
54909;SDS011;63189;51.240;9.964;2023-03-16T00:59:36;5.50;;;2.80;;
54909;SDS011;63189;51.240;9.964;2023-03-16T01:02:03;5.57;;;2.45;;
54909;SDS011;63189;51.240;9.964;2023-03-16T01:04:30;6.50;;;2.78;;
54909;SDS011;63189;51.240;9.964;2023-03-16T01:06:56;5.90;;;2.13;;
54909;SDS011;63189;51.240;9.964;2023-03-16T01:09:22;8.73;;;3.00;;
54909;SDS011;63189;51.240;9.964;2023-03-16T01:11:47;5.65;;;2.67;;
54909;SDS011;63189;51.240;9.964;2023-03-16T01:14:17;7.35;;;3.10;;
54909;SDS011;63189;51.240;9.964;2023-03-16T01:16:43;8.13;;;2.95;;
54909;SDS011;63189;51.240;9.964;2023-03-16T01:19:10;5.80;;;2.10;;
54909;SDS011;63189;51.240;9.964;2023-03-16T01:21:39;4.93;;;2.55;;
54909;SDS011;63189;51.240;9.964;2023-03-16T01:24:06;5.13;;;2.83;;
54909;SDS011;63189;51.240;9.964;2023-03-16T01:26:32;7.28;;;2.80;;
54909;SDS011;63189;51.240;9.964;2023-03-16T01:28:57;5.13;;;2.28;;
54909;SDS011;63189;51.240;9.964;2023-03-16T01:31:23;7.50;;;2.55;;
54909;SDS011;63189;51.240;9.964;2023-03-16T01:33:48;9.15;;;2.70;;
54909;SDS011;63189;51.240;9.964;2023-03-16T01:36:15;6.25;;;2.42;;
54909;SDS011;63189;51.240;9.964;2023-03-16T01:38:42;4.88;;;2.58;;
54909;SDS011;63189;51.240;9.964;2023-03-16T01:41:07;5.68;;;2.63;;
54909;SDS011;63189;51.240;9.964;2023-03-16T01:43:35;7.35;;;2.88;;
54909;SDS011;63189;51.240;9.964;2023-03-16T01:48:41;6.35;;;2.40;;
54909;SDS011;63189;51.240;9.964;2023-03-16T01:51:09;8.82;;;3.10;;
54909;SDS011;63189;51.240;9.964;2023-03-16T01:53:40;8.05;;;2.92;;
54909;SDS011;63189;51.240;9.964;2023-03-16T01:56:09;8.25;;;2.92;;
54909;SDS011;63189;51.240;9.964;2023-03-16T01:58:37;4.40;;;2.17;;
54909;SDS011;63189;51.240;9.964;2023-03-16T02:01:05;6.18;;;2.22;;
54909;SDS011;63189;51.240;9.964;2023-03-16T02:03:31;9.10;;;3.15;;
54909;SDS011;63189;51.240;9.964;2023-03-16T02:06:06;5.53;;;2.45;;
54909;SDS011;63189;51.240;9.964;2023-03-16T02:08:33;4.75;;;2.50;;
54909;SDS011;63189;51.240;9.964;2023-03-16T02:11:01;9.15;;;2.63;;
54909;SDS011;63189;51.240;9.964;2023-03-16T02:13:28;5.68;;;2.58;;
54909;SDS011;63189;51.240;9.964;2023-03-16T02:15:57;5.00;;;2.30;;
54909;SDS011;63189;51.240;9.964;2023-03-16T02:18:23;6.50;;;2.80;;
54909;SDS011;63189;51.240;9.964;2023-03-16T02:20:49;6.28;;;2.58;;
54909;SDS011;63189;51.240;9.964;2023-03-16T02:23:26;7.25;;;2.80;;
54909;SDS011;63189;51.240;9.964;2023-03-16T02:28:55;3.35;;;1.83;;
54909;SDS011;63189;51.240;9.964;2023-03-16T02:31:30;6.05;;;2.95;;
54909;SDS011;63189;51.240;9.964;2023-03-16T02:33:56;7.72;;;2.20;;
54909;SDS011;63189;51.240;9.964;2023-03-16T02:36:23;6.47;;;2.22;;
54909;SDS011;63189;51.240;9.964;2023-03-16T02:38:48;4.80;;;2.55;;
54909;SDS011;63189;51.240;9.964;2023-03-16T02:41:15;4.50;;;2.20;;
54909;SDS011;63189;51.240;9.964;2023-03-16T02:43:43;4.20;;;1.80;;
54909;SDS011;63189;51.240;9.964;2023-03-16T02:46:12;4.55;;;1.90;;
54909;SDS011;63189;51.240;9.964;2023-03-16T02:51:26;4.40;;;2.53;;
54909;SDS011;63189;51.240;9.964;2023-03-16T02:53:52;4.50;;;2.58;;
54909;SDS011;63189;51.240;9.964;2023-03-16T02:56:17;5.57;;;2.28;;
54909;SDS011;63189;51.240;9.964;2023-03-16T02:58:43;5.28;;;2.50;;
54909;SDS011;63189;51.240;9.964;2023-03-16T03:01:08;6.30;;;2.38;;
54909;SDS011;63189;51.240;9.964;2023-03-16T03:03:34;5.18;;;2.97;;
54909;SDS011;63189;51.240;9.964;2023-03-16T03:05:59;5.30;;;2.20;;
54909;SDS011;63189;51.240;9.964;2023-03-16T03:08:25;5.57;;;2.67;;
54909;SDS011;63189;51.240;9.964;2023-03-16T03:10:51;7.68;;;2.75;;
54909;SDS011;63189;51.240;9.964;2023-03-16T03:13:16;9.82;;;2.60;;
54909;SDS011;63189;51.240;9.964;2023-03-16T03:15:42;7.88;;;2.83;;
54909;SDS011;63189;51.240;9.964;2023-03-16T03:18:07;6.63;;;2.25;;
54909;SDS011;63189;51.240;9.964;2023-03-16T03:20:33;6.85;;;2.15;;
54909;SDS011;63189;51.240;9.964;2023-03-16T03:22:58;6.45;;;2.45;;
54909;SDS011;63189;51.240;9.964;2023-03-16T03:25:24;5.93;;;2.15;;
54909;SDS011;63189;51.240;9.964;2023-03-16T03:27:49;6.40;;;2.50;;
54909;SDS011;63189;51.240;9.964;2023-03-16T03:30:19;6.35;;;2.10;;
54909;SDS011;63189;51.240;9.964;2023-03-16T03:32:46;5.28;;;2.33;;
54909;SDS011;63189;51.240;9.964;2023-03-16T03:35:11;4.82;;;2.30;;
54909;SDS011;63189;51.240;9.964;2023-03-16T03:37:39;10.38;;;2.92;;
54909;SDS011;63189;51.240;9.964;2023-03-16T03:40:07;4.07;;;2.22;;
54909;SDS011;63189;51.240;9.964;2023-03-16T03:42:34;10.10;;;2.95;;
54909;SDS011;63189;51.240;9.964;2023-03-16T03:45:00;7.13;;;2.50;;
54909;SDS011;63189;51.240;9.964;2023-03-16T03:47:25;7.93;;;2.60;;
54909;SDS011;63189;51.240;9.964;2023-03-16T03:49:51;6.68;;;2.92;;
54909;SDS011;63189;51.240;9.964;2023-03-16T03:52:16;4.55;;;2.47;;
54909;SDS011;63189;51.240;9.964;2023-03-16T03:54:42;7.63;;;3.08;;
54909;SDS011;63189;51.240;9.964;2023-03-16T03:57:07;7.53;;;2.88;;
54909;SDS011;63189;51.240;9.964;2023-03-16T03:59:32;5.65;;;2.55;;
54909;SDS011;63189;51.240;9.964;2023-03-16T04:01:59;5.18;;;2.60;;
54909;SDS011;63189;51.240;9.964;2023-03-16T04:04:24;8.18;;;3.00;;
54909;SDS011;63189;51.240;9.964;2023-03-16T04:06:49;6.32;;;2.45;;
54909;SDS011;63189;51.240;9.964;2023-03-16T04:09:15;10.02;;;3.00;;
54909;SDS011;63189;51.240;9.964;2023-03-16T04:11:41;9.15;;;2.92;;
54909;SDS011;63189;51.240;9.964;2023-03-16T04:14:06;5.97;;;2.53;;
54909;SDS011;63189;51.240;9.964;2023-03-16T04:16:32;8.90;;;2.47;;
54909;SDS011;63189;51.240;9.964;2023-03-16T04:18:58;6.10;;;2.65;;
54909;SDS011;63189;51.240;9.964;2023-03-16T04:21:23;6.13;;;2.75;;
54909;SDS011;63189;51.240;9.964;2023-03-16T04:23:49;5.38;;;2.38;;
54909;SDS011;63189;51.240;9.964;2023-03-16T04:26:18;4.85;;;2.35;;
54909;SDS011;63189;51.240;9.964;2023-03-16T04:28:43;5.03;;;2.30;;
54909;SDS011;63189;51.240;9.964;2023-03-16T04:31:09;7.35;;;2.53;;
54909;SDS011;63189;51.240;9.964;2023-03-16T04:33:35;4.93;;;2.47;;
54909;SDS011;63189;51.240;9.964;2023-03-16T04:36:02;4.90;;;2.25;;
54909;SDS011;63189;51.240;9.964;2023-03-16T04:38:28;6.20;;;2.30;;
54909;SDS011;63189;51.240;9.964;2023-03-16T04:40:54;5.93;;;2.67;;
54909;SDS011;63189;51.240;9.964;2023-03-16T04:43:19;5.97;;;2.42;;
54909;SDS011;63189;51.240;9.964;2023-03-16T04:45:45;5.40;;;2.65;;
54909;SDS011;63189;51.240;9.964;2023-03-16T04:48:10;6.70;;;2.60;;
54909;SDS011;63189;51.240;9.964;2023-03-16T04:50:36;5.35;;;1.90;;
54909;SDS011;63189;51.240;9.964;2023-03-16T04:53:02;5.25;;;2.30;;
54909;SDS011;63189;51.240;9.964;2023-03-16T04:55:28;6.40;;;2.47;;
54909;SDS011;63189;51.240;9.964;2023-03-16T04:57:55;3.80;;;2.10;;
54909;SDS011;63189;51.240;9.964;2023-03-16T05:00:21;6.10;;;2.60;;
54909;SDS011;63189;51.240;9.964;2023-03-16T05:02:48;4.45;;;2.42;;
54909;SDS011;63189;51.240;9.964;2023-03-16T05:05:16;8.38;;;2.38;;
54909;SDS011;63189;51.240;9.964;2023-03-16T05:07:41;6.55;;;2.30;;
54909;SDS011;63189;51.240;9.964;2023-03-16T05:10:08;6.55;;;2.00;;
54909;SDS011;63189;51.240;9.964;2023-03-16T05:12:35;7.00;;;2.35;;
54909;SDS011;63189;51.240;9.964;2023-03-16T05:15:00;5.65;;;2.38;;
54909;SDS011;63189;51.240;9.964;2023-03-16T05:17:26;5.85;;;2.30;;
54909;SDS011;63189;51.240;9.964;2023-03-16T05:19:51;7.00;;;2.58;;
54909;SDS011;63189;51.240;9.964;2023-03-16T05:22:17;7.07;;;2.30;;
54909;SDS011;63189;51.240;9.964;2023-03-16T05:24:43;4.55;;;1.75;;
54909;SDS011;63189;51.240;9.964;2023-03-16T05:27:08;5.13;;;2.38;;
54909;SDS011;63189;51.240;9.964;2023-03-16T05:29:33;4.97;;;2.13;;
54909;SDS011;63189;51.240;9.964;2023-03-16T05:31:59;6.15;;;2.10;;
54909;SDS011;63189;51.240;9.964;2023-03-16T05:34:24;4.35;;;2.13;;
54909;SDS011;63189;51.240;9.964;2023-03-16T05:36:50;5.40;;;2.30;;
54909;SDS011;63189;51.240;9.964;2023-03-16T05:39:16;6.53;;;2.30;;
54909;SDS011;63189;51.240;9.964;2023-03-16T05:41:41;9.80;;;3.22;;
54909;SDS011;63189;51.240;9.964;2023-03-16T05:44:06;5.13;;;2.15;;
54909;SDS011;63189;51.240;9.964;2023-03-16T05:46:32;5.00;;;2.20;;
54909;SDS011;63189;51.240;9.964;2023-03-16T05:48:58;6.90;;;2.30;;
54909;SDS011;63189;51.240;9.964;2023-03-16T05:51:23;4.95;;;2.15;;
54909;SDS011;63189;51.240;9.964;2023-03-16T05:53:50;5.90;;;2.80;;
54909;SDS011;63189;51.240;9.964;2023-03-16T05:56:17;6.13;;;2.25;;
54909;SDS011;63189;51.240;9.964;2023-03-16T05:58:42;7.35;;;2.40;;
54909;SDS011;63189;51.240;9.964;2023-03-16T06:01:08;7.43;;;2.65;;
54909;SDS011;63189;51.240;9.964;2023-03-16T06:03:35;5.40;;;2.50;;
54909;SDS011;63189;51.240;9.964;2023-03-16T06:06:00;4.35;;;2.10;;
54909;SDS011;63189;51.240;9.964;2023-03-16T06:08:26;10.00;;;2.78;;
54909;SDS011;63189;51.240;9.964;2023-03-16T06:10:51;4.63;;;2.20;;
54909;SDS011;63189;51.240;9.964;2023-03-16T06:13:17;6.68;;;2.55;;
54909;SDS011;63189;51.240;9.964;2023-03-16T06:15:42;4.00;;;2.20;;
54909;SDS011;63189;51.240;9.964;2023-03-16T06:18:08;4.78;;;2.90;;
54909;SDS011;63189;51.240;9.964;2023-03-16T06:20:33;8.50;;;2.78;;
54909;SDS011;63189;51.240;9.964;2023-03-16T06:22:59;4.80;;;2.22;;
54909;SDS011;63189;51.240;9.964;2023-03-16T06:25:24;6.00;;;2.60;;
54909;SDS011;63189;51.240;9.964;2023-03-16T06:27:50;6.78;;;3.38;;
54909;SDS011;63189;51.240;9.964;2023-03-16T06:30:15;5.38;;;2.40;;
54909;SDS011;63189;51.240;9.964;2023-03-16T06:32:41;7.90;;;3.25;;
54909;SDS011;63189;51.240;9.964;2023-03-16T06:35:07;8.15;;;3.17;;
54909;SDS011;63189;51.240;9.964;2023-03-16T06:37:33;6.57;;;2.63;;
54909;SDS011;63189;51.240;9.964;2023-03-16T06:39:59;6.95;;;2.70;;
54909;SDS011;63189;51.240;9.964;2023-03-16T06:42:24;8.50;;;3.05;;
54909;SDS011;63189;51.240;9.964;2023-03-16T06:44:50;6.32;;;2.65;;
54909;SDS011;63189;51.240;9.964;2023-03-16T06:47:16;6.15;;;3.33;;
54909;SDS011;63189;51.240;9.964;2023-03-16T06:49:42;7.32;;;3.00;;
54909;SDS011;63189;51.240;9.964;2023-03-16T06:52:07;4.70;;;2.22;;
54909;SDS011;63189;51.240;9.964;2023-03-16T06:54:34;6.78;;;3.50;;
54909;SDS011;63189;51.240;9.964;2023-03-16T06:57:01;6.20;;;2.63;;
54909;SDS011;63189;51.240;9.964;2023-03-16T06:59:27;6.65;;;3.20;;
54909;SDS011;63189;51.240;9.964;2023-03-16T07:01:53;6.60;;;3.35;;
54909;SDS011;63189;51.240;9.964;2023-03-16T07:04:18;7.88;;;2.72;;
54909;SDS011;63189;51.240;9.964;2023-03-16T07:06:43;5.22;;;3.00;;
54909;SDS011;63189;51.240;9.964;2023-03-16T07:09:09;7.50;;;3.00;;
54909;SDS011;63189;51.240;9.964;2023-03-16T07:11:34;7.05;;;3.10;;
54909;SDS011;63189;51.240;9.964;2023-03-16T07:14:00;4.55;;;3.00;;
54909;SDS011;63189;51.240;9.964;2023-03-16T07:16:26;5.72;;;2.85;;
54909;SDS011;63189;51.240;9.964;2023-03-16T07:18:51;7.10;;;3.33;;
54909;SDS011;63189;51.240;9.964;2023-03-16T07:21:17;6.03;;;2.60;;
54909;SDS011;63189;51.240;9.964;2023-03-16T07:23:42;7.50;;;3.10;;
54909;SDS011;63189;51.240;9.964;2023-03-16T07:26:09;6.47;;;2.97;;
54909;SDS011;63189;51.240;9.964;2023-03-16T07:28:36;8.18;;;3.05;;
54909;SDS011;63189;51.240;9.964;2023-03-16T07:31:02;6.97;;;3.15;;
54909;SDS011;63189;51.240;9.964;2023-03-16T07:33:28;7.20;;;2.80;;
54909;SDS011;63189;51.240;9.964;2023-03-16T07:35:53;4.85;;;2.10;;
54909;SDS011;63189;51.240;9.964;2023-03-16T07:38:19;8.57;;;3.15;;
54909;SDS011;63189;51.240;9.964;2023-03-16T07:40:45;5.97;;;3.03;;
54909;SDS011;63189;51.240;9.964;2023-03-16T07:43:11;5.45;;;3.50;;
54909;SDS011;63189;51.240;9.964;2023-03-16T07:45:37;6.80;;;3.33;;
54909;SDS011;63189;51.240;9.964;2023-03-16T07:48:02;8.05;;;3.67;;
54909;SDS011;63189;51.240;9.964;2023-03-16T07:50:27;7.07;;;3.05;;
54909;SDS011;63189;51.240;9.964;2023-03-16T07:52:53;8.30;;;3.28;;
54909;SDS011;63189;51.240;9.964;2023-03-16T07:55:18;7.47;;;3.55;;
54909;SDS011;63189;51.240;9.964;2023-03-16T07:57:44;7.53;;;3.40;;
54909;SDS011;63189;51.240;9.964;2023-03-16T08:00:12;6.28;;;3.35;;
54909;SDS011;63189;51.240;9.964;2023-03-16T08:02:38;6.30;;;3.70;;
54909;SDS011;63189;51.240;9.964;2023-03-16T08:05:03;9.27;;;3.53;;
54909;SDS011;63189;51.240;9.964;2023-03-16T08:07:29;7.15;;;3.08;;
54909;SDS011;63189;51.240;9.964;2023-03-16T08:09:56;9.00;;;3.70;;
54909;SDS011;63189;51.240;9.964;2023-03-16T08:12:22;7.90;;;3.55;;
54909;SDS011;63189;51.240;9.964;2023-03-16T08:14:47;8.20;;;3.55;;
54909;SDS011;63189;51.240;9.964;2023-03-16T08:17:12;5.20;;;3.13;;
54909;SDS011;63189;51.240;9.964;2023-03-16T08:19:38;7.22;;;3.45;;
54909;SDS011;63189;51.240;9.964;2023-03-16T08:22:04;5.22;;;3.03;;
54909;SDS011;63189;51.240;9.964;2023-03-16T08:24:31;7.85;;;3.00;;
54909;SDS011;63189;51.240;9.964;2023-03-16T08:26:57;8.40;;;3.53;;
54909;SDS011;63189;51.240;9.964;2023-03-16T08:29:24;6.68;;;3.70;;
54909;SDS011;63189;51.240;9.964;2023-03-16T08:31:51;6.60;;;2.72;;
54909;SDS011;63189;51.240;9.964;2023-03-16T08:34:18;9.55;;;3.50;;
54909;SDS011;63189;51.240;9.964;2023-03-16T08:36:44;8.32;;;3.45;;
54909;SDS011;63189;51.240;9.964;2023-03-16T08:39:09;6.15;;;3.00;;
54909;SDS011;63189;51.240;9.964;2023-03-16T08:41:35;6.97;;;3.22;;
54909;SDS011;63189;51.240;9.964;2023-03-16T08:44:00;6.85;;;3.03;;
54909;SDS011;63189;51.240;9.964;2023-03-16T08:46:27;4.93;;;2.65;;
54909;SDS011;63189;51.240;9.964;2023-03-16T08:48:53;6.03;;;2.60;;
54909;SDS011;63189;51.240;9.964;2023-03-16T08:51:19;6.18;;;2.97;;
54909;SDS011;63189;51.240;9.964;2023-03-16T08:53:45;7.35;;;2.97;;
54909;SDS011;63189;51.240;9.964;2023-03-16T08:56:11;7.88;;;3.25;;
54909;SDS011;63189;51.240;9.964;2023-03-16T08:58:38;5.88;;;2.80;;
54909;SDS011;63189;51.240;9.964;2023-03-16T09:01:09;6.80;;;3.30;;
54909;SDS011;63189;51.240;9.964;2023-03-16T09:03:36;8.30;;;3.25;;
54909;SDS011;63189;51.240;9.964;2023-03-16T09:06:02;7.05;;;2.47;;
54909;SDS011;63189;51.240;9.964;2023-03-16T09:08:30;8.82;;;3.03;;
54909;SDS011;63189;51.240;9.964;2023-03-16T09:11:02;6.50;;;2.63;;
54909;SDS011;63189;51.240;9.964;2023-03-16T09:13:31;6.13;;;2.60;;
54909;SDS011;63189;51.240;9.964;2023-03-16T09:15:57;6.60;;;2.45;;
54909;SDS011;63189;51.240;9.964;2023-03-16T09:18:23;6.50;;;2.72;;
54909;SDS011;63189;51.240;9.964;2023-03-16T09:20:50;4.03;;;2.50;;
54909;SDS011;63189;51.240;9.964;2023-03-16T09:23:16;8.02;;;3.00;;
54909;SDS011;63189;51.240;9.964;2023-03-16T09:25:43;4.72;;;2.67;;
54909;SDS011;63189;51.240;9.964;2023-03-16T09:28:09;5.55;;;2.30;;
54909;SDS011;63189;51.240;9.964;2023-03-16T09:30:35;6.13;;;2.55;;
54909;SDS011;63189;51.240;9.964;2023-03-16T09:33:01;4.50;;;2.58;;
54909;SDS011;63189;51.240;9.964;2023-03-16T09:35:26;5.25;;;2.10;;
54909;SDS011;63189;51.240;9.964;2023-03-16T09:37:52;3.47;;;2.25;;
54909;SDS011;63189;51.240;9.964;2023-03-16T09:40:24;3.72;;;2.08;;
54909;SDS011;63189;51.240;9.964;2023-03-16T09:43:11;3.95;;;2.15;;
54909;SDS011;63189;51.240;9.964;2023-03-16T09:48:24;2.92;;;1.60;;
54909;SDS011;63189;51.240;9.964;2023-03-16T09:50:53;3.05;;;1.83;;
54909;SDS011;63189;51.240;9.964;2023-03-16T09:53:27;4.57;;;1.80;;
54909;SDS011;63189;51.240;9.964;2023-03-16T09:56:03;4.68;;;2.00;;
54909;SDS011;63189;51.240;9.964;2023-03-16T09:58:32;5.47;;;2.22;;
54909;SDS011;63189;51.240;9.964;2023-03-16T10:03:31;3.20;;;1.38;;
54909;SDS011;63189;51.240;9.964;2023-03-16T10:06:00;3.20;;;1.67;;
54909;SDS011;63189;51.240;9.964;2023-03-16T10:09:15;6.55;;;2.08;;
54909;SDS011;63189;51.240;9.964;2023-03-16T10:11:23;4.03;;;1.90;;
54909;SDS011;63189;51.240;9.964;2023-03-16T10:13:54;3.72;;;1.75;;
54909;SDS011;63189;51.240;9.964;2023-03-16T10:16:40;3.25;;;1.73;;
54909;SDS011;63189;51.240;9.964;2023-03-16T10:19:13;2.30;;;1.30;;
54909;SDS011;63189;51.240;9.964;2023-03-16T10:21:44;7.07;;;2.42;;
54909;SDS011;63189;51.240;9.964;2023-03-16T10:24:49;3.63;;;1.83;;
54909;SDS011;63189;51.240;9.964;2023-03-16T10:27:11;2.97;;;1.83;;
54909;SDS011;63189;51.240;9.964;2023-03-16T10:29:43;5.95;;;2.35;;
54909;SDS011;63189;51.240;9.964;2023-03-16T10:32:16;5.32;;;2.05;;
54909;SDS011;63189;51.240;9.964;2023-03-16T10:34:44;3.70;;;1.85;;
54909;SDS011;63189;51.240;9.964;2023-03-16T10:37:17;4.97;;;1.75;;
54909;SDS011;63189;51.240;9.964;2023-03-16T10:39:42;4.32;;;2.30;;
54909;SDS011;63189;51.240;9.964;2023-03-16T10:42:19;5.07;;;2.50;;
54909;SDS011;63189;51.240;9.964;2023-03-16T10:44:45;3.95;;;2.10;;
54909;SDS011;63189;51.240;9.964;2023-03-16T10:47:21;3.25;;;2.15;;
54909;SDS011;63189;51.240;9.964;2023-03-16T10:49:51;4.00;;;2.03;;
54909;SDS011;63189;51.240;9.964;2023-03-16T10:52:28;3.83;;;2.00;;
54909;SDS011;63189;51.240;9.964;2023-03-16T10:54:59;2.70;;;2.10;;
54909;SDS011;63189;51.240;9.964;2023-03-16T10:57:32;3.47;;;2.05;;
54909;SDS011;63189;51.240;9.964;2023-03-16T11:00:03;3.45;;;1.73;;
54909;SDS011;63189;51.240;9.964;2023-03-16T11:02:33;5.53;;;2.90;;
54909;SDS011;63189;51.240;9.964;2023-03-16T11:05:10;6.03;;;2.60;;
54909;SDS011;63189;51.240;9.964;2023-03-16T11:08:18;4.53;;;1.98;;
54909;SDS011;63189;51.240;9.964;2023-03-16T11:10:57;3.88;;;1.95;;
54909;SDS011;63189;51.240;9.964;2023-03-16T11:13:30;3.40;;;2.10;;
54909;SDS011;63189;51.240;9.964;2023-03-16T11:16:00;6.05;;;2.60;;
54909;SDS011;63189;51.240;9.964;2023-03-16T11:18:40;4.57;;;2.40;;
54909;SDS011;63189;51.240;9.964;2023-03-16T11:21:14;4.10;;;2.50;;
54909;SDS011;63189;51.240;9.964;2023-03-16T11:23:46;4.68;;;2.40;;
54909;SDS011;63189;51.240;9.964;2023-03-16T11:26:36;7.05;;;2.78;;
54909;SDS011;63189;51.240;9.964;2023-03-16T11:29:06;6.45;;;2.22;;
54909;SDS011;63189;51.240;9.964;2023-03-16T11:31:41;4.68;;;2.20;;
54909;SDS011;63189;51.240;9.964;2023-03-16T11:34:34;5.03;;;2.75;;
54909;SDS011;63189;51.240;9.964;2023-03-16T11:53:29;3.58;;;1.65;;
54909;SDS011;63189;51.240;9.964;2023-03-16T12:01:50;3.85;;;2.20;;
54909;SDS011;63189;51.240;9.964;2023-03-16T12:04:35;3.22;;;2.00;;
54909;SDS011;63189;51.240;9.964;2023-03-16T12:07:26;4.40;;;2.00;;
54909;SDS011;63189;51.240;9.964;2023-03-16T12:10:21;3.17;;;1.73;;
54909;SDS011;63189;51.240;9.964;2023-03-16T12:15:44;3.78;;;1.92;;
54909;SDS011;63189;51.240;9.964;2023-03-16T12:18:23;3.75;;;1.88;;
54909;SDS011;63189;51.240;9.964;2023-03-16T12:21:06;3.53;;;1.75;;
54909;SDS011;63189;51.240;9.964;2023-03-16T12:26:17;1.83;;;1.27;;
54909;SDS011;63189;51.240;9.964;2023-03-16T12:28:45;4.68;;;1.60;;
54909;SDS011;63189;51.240;9.964;2023-03-16T12:37:14;5.45;;;1.77;;
54909;SDS011;63189;51.240;9.964;2023-03-16T12:39:51;3.63;;;1.80;;
54909;SDS011;63189;51.240;9.964;2023-03-16T12:45:02;2.38;;;1.17;;
54909;SDS011;63189;51.240;9.964;2023-03-16T12:50:13;5.10;;;1.70;;
54909;SDS011;63189;51.240;9.964;2023-03-16T12:52:41;5.25;;;1.42;;
54909;SDS011;63189;51.240;9.964;2023-03-16T12:55:13;3.10;;;1.42;;
54909;SDS011;63189;51.240;9.964;2023-03-16T12:57:39;3.28;;;1.42;;
54909;SDS011;63189;51.240;9.964;2023-03-16T13:00:05;2.58;;;1.30;;
54909;SDS011;63189;51.240;9.964;2023-03-16T13:02:34;3.22;;;1.42;;
54909;SDS011;63189;51.240;9.964;2023-03-16T13:05:13;4.30;;;1.45;;
54909;SDS011;63189;51.240;9.964;2023-03-16T13:07:47;3.63;;;1.73;;
54909;SDS011;63189;51.240;9.964;2023-03-16T13:10:15;3.70;;;1.70;;
54909;SDS011;63189;51.240;9.964;2023-03-16T13:12:45;2.30;;;1.60;;
54909;SDS011;63189;51.240;9.964;2023-03-16T13:17:50;2.63;;;1.30;;
54909;SDS011;63189;51.240;9.964;2023-03-16T13:20:30;5.68;;;1.90;;
54909;SDS011;63189;51.240;9.964;2023-03-16T13:25:42;4.68;;;2.03;;
54909;SDS011;63189;51.240;9.964;2023-03-16T13:28:10;2.75;;;1.42;;
54909;SDS011;63189;51.240;9.964;2023-03-16T13:30:42;4.20;;;1.85;;
54909;SDS011;63189;51.240;9.964;2023-03-16T13:35:51;1.83;;;1.27;;
54909;SDS011;63189;51.240;9.964;2023-03-16T13:38:21;2.97;;;1.52;;
54909;SDS011;63189;51.240;9.964;2023-03-16T13:40:52;3.53;;;1.40;;
54909;SDS011;63189;51.240;9.964;2023-03-16T13:43:21;2.80;;;1.27;;
54909;SDS011;63189;51.240;9.964;2023-03-16T13:45:52;3.38;;;1.60;;
54909;SDS011;63189;51.240;9.964;2023-03-16T13:48:18;2.65;;;1.40;;
54909;SDS011;63189;51.240;9.964;2023-03-16T13:50:44;1.98;;;1.08;;
54909;SDS011;63189;51.240;9.964;2023-03-16T13:53:27;3.72;;;1.23;;
54909;SDS011;63189;51.240;9.964;2023-03-16T13:55:54;2.17;;;0.90;;
54909;SDS011;63189;51.240;9.964;2023-03-16T13:58:22;2.88;;;1.70;;
54909;SDS011;63189;51.240;9.964;2023-03-16T14:01:35;3.58;;;1.30;;
54909;SDS011;63189;51.240;9.964;2023-03-16T14:03:44;3.58;;;1.50;;
54909;SDS011;63189;51.240;9.964;2023-03-16T14:06:25;2.85;;;1.30;;
54909;SDS011;63189;51.240;9.964;2023-03-16T14:08:54;2.50;;;1.30;;
54909;SDS011;63189;51.240;9.964;2023-03-16T14:11:22;3.67;;;1.63;;
54909;SDS011;63189;51.240;9.964;2023-03-16T14:13:50;3.47;;;1.33;;
54909;SDS011;63189;51.240;9.964;2023-03-16T14:16:18;2.55;;;1.55;;
54909;SDS011;63189;51.240;9.964;2023-03-16T14:18:50;3.13;;;1.40;;
54909;SDS011;63189;51.240;9.964;2023-03-16T14:21:24;2.30;;;1.48;;
54909;SDS011;63189;51.240;9.964;2023-03-16T14:23:57;2.03;;;1.20;;
54909;SDS011;63189;51.240;9.964;2023-03-16T14:26:26;4.38;;;2.00;;
54909;SDS011;63189;51.240;9.964;2023-03-16T14:29:34;2.60;;;1.38;;
54909;SDS011;63189;51.240;9.964;2023-03-16T14:31:48;4.53;;;1.80;;
54909;SDS011;63189;51.240;9.964;2023-03-16T14:37:06;3.67;;;1.42;;
54909;SDS011;63189;51.240;9.964;2023-03-16T14:39:33;3.38;;;1.73;;
54909;SDS011;63189;51.240;9.964;2023-03-16T14:42:01;4.07;;;1.95;;
54909;SDS011;63189;51.240;9.964;2023-03-16T14:44:29;3.72;;;1.77;;
54909;SDS011;63189;51.240;9.964;2023-03-16T14:46:57;2.75;;;1.75;;
54909;SDS011;63189;51.240;9.964;2023-03-16T14:49:28;2.50;;;1.48;;
54909;SDS011;63189;51.240;9.964;2023-03-16T14:51:58;3.30;;;1.70;;
54909;SDS011;63189;51.240;9.964;2023-03-16T14:54:26;2.80;;;1.70;;
54909;SDS011;63189;51.240;9.964;2023-03-16T14:56:54;3.28;;;1.90;;
54909;SDS011;63189;51.240;9.964;2023-03-16T14:59:24;3.50;;;1.92;;
54909;SDS011;63189;51.240;9.964;2023-03-16T15:01:50;2.58;;;1.85;;
54909;SDS011;63189;51.240;9.964;2023-03-16T15:04:16;4.40;;;1.85;;
54909;SDS011;63189;51.240;9.964;2023-03-16T15:06:47;2.78;;;1.80;;
54909;SDS011;63189;51.240;9.964;2023-03-16T15:09:26;3.30;;;1.95;;
54909;SDS011;63189;51.240;9.964;2023-03-16T15:11:55;4.88;;;1.73;;
54909;SDS011;63189;51.240;9.964;2023-03-16T15:14:22;2.92;;;1.65;;
54909;SDS011;63189;51.240;9.964;2023-03-16T15:19:32;3.60;;;1.40;;
54909;SDS011;63189;51.240;9.964;2023-03-16T15:21:57;3.10;;;1.73;;
54909;SDS011;63189;51.240;9.964;2023-03-16T15:24:24;2.30;;;1.60;;
54909;SDS011;63189;51.240;9.964;2023-03-16T15:26:53;3.10;;;1.88;;
54909;SDS011;63189;51.240;9.964;2023-03-16T15:29:18;2.95;;;2.00;;
54909;SDS011;63189;51.240;9.964;2023-03-16T15:31:44;2.90;;;1.90;;
54909;SDS011;63189;51.240;9.964;2023-03-16T15:34:10;3.50;;;1.73;;
54909;SDS011;63189;51.240;9.964;2023-03-16T15:36:35;2.83;;;1.60;;
54909;SDS011;63189;51.240;9.964;2023-03-16T15:39:01;3.78;;;1.85;;
54909;SDS011;63189;51.240;9.964;2023-03-16T15:41:28;3.03;;;1.42;;
54909;SDS011;63189;51.240;9.964;2023-03-16T15:43:53;3.42;;;1.50;;
54909;SDS011;63189;51.240;9.964;2023-03-16T15:46:24;2.58;;;1.50;;
54909;SDS011;63189;51.240;9.964;2023-03-16T15:48:50;11.82;;;1.83;;
54909;SDS011;63189;51.240;9.964;2023-03-16T15:53:53;3.03;;;1.30;;
54909;SDS011;63189;51.240;9.964;2023-03-16T15:56:24;5.10;;;1.40;;
54909;SDS011;63189;51.240;9.964;2023-03-16T15:58:54;2.25;;;0.93;;
54909;SDS011;63189;51.240;9.964;2023-03-16T16:01:24;4.90;;;1.35;;
54909;SDS011;63189;51.240;9.964;2023-03-16T16:03:52;3.58;;;1.05;;